Time;durP1;ratioP1;P1;durP2;ratioP2;P2;SDS_P1;SDS_P2;PMS_P1;PMS_P2;Temp;Humidity;BMP_temperature;BMP_pressure;BME280_temperature;BME280_humidity;BME280_pressure;Samples;Min_cycle;Max_cycle;Signal;HPM_P1;HPM_P2
2023/03/03 00:00:03;;;;;;;;;18.20;16.80;;;;;2.44;67.54;100590.59;5098596;28;8826;-62
2023/03/03 00:02:31;;;;;;;;;14.20;11.60;;;;;2.43;68.20;100580.16;5098187;28;8837;-61
2023/03/03 00:04:59;;;;;;;;;15.80;14.80;;;;;2.38;68.38;100580.34;5098052;28;8923;-61
2023/03/03 00:07:29;;;;;;;;;15.40;15.00;;;;;2.37;67.99;100589.13;5098350;28;8822;-61
2023/03/03 00:09:57;;;;;;;;;5.20;4.80;;;;;2.36;68.02;100590.00;5098300;28;8948;-61
2023/03/03 00:12:25;;;;;;;;;14.60;14.60;;;;;2.35;68.38;100595.34;5098134;28;8851;-61
2023/03/03 00:14:53;;;;;;;;;15.40;12.20;;;;;2.33;68.82;100605.03;5098563;28;8948;-62
2023/03/03 00:17:21;;;;;;;;;6.60;5.60;;;;;2.31;68.37;100591.97;5098184;28;8837;-60
2023/03/03 00:19:48;;;;;;;;;11.20;10.40;;;;;2.32;68.59;100595.44;5098360;28;8821;-60
2023/03/03 00:22:16;;;;;;;;;7.20;6.20;;;;;2.33;68.92;100598.03;5098261;28;8833;-62
2023/03/03 00:24:44;;;;;;;;;10.00;10.00;;;;;2.34;68.79;100609.41;5097893;28;8850;-62
2023/03/03 00:27:12;;;;;;;;;15.00;12.00;;;;;2.32;68.95;100595.44;5096311;28;8828;-62
2023/03/03 00:29:39;;;;;;;;;8.60;6.00;;;;;2.32;68.57;100592.81;5097885;28;8836;-62
2023/03/03 00:32:07;;;;;;;;;13.40;13.40;;;;;2.30;68.56;100597.28;5097484;28;8829;-62
2023/03/03 00:34:35;;;;;;;;;17.20;14.40;;;;;2.29;69.15;100591.16;5097838;28;8900;-62
2023/03/03 00:37:03;;;;;;;;;12.00;10.40;;;;;2.29;69.22;100585.88;5097686;28;8838;-62
2023/03/03 00:39:31;;;;;;;;;14.40;12.60;;;;;2.29;69.23;100585.88;5097785;28;8846;-62
2023/03/03 00:41:59;;;;;;;;;16.40;15.00;;;;;2.30;69.02;100590.25;5097750;28;8836;-61
2023/03/03 00:44:27;;;;;;;;;16.20;15.00;;;;;2.31;68.97;100591.97;5097944;28;8814;-62
2023/03/03 00:46:55;;;;;;;;;12.80;11.00;;;;;2.32;69.02;100582.31;5097977;28;8860;-62
2023/03/03 00:49:23;;;;;;;;;9.40;8.60;;;;;2.33;69.10;100592.78;5097413;28;8830;-62
2023/03/03 00:51:51;;;;;;;;;13.00;12.00;;;;;2.33;69.38;100586.63;5096422;28;8846;-61
2023/03/03 00:54:19;;;;;;;;;12.80;11.20;;;;;2.33;68.91;100587.50;5097812;28;8826;-62
2023/03/03 00:56:47;;;;;;;;;15.00;10.00;;;;;2.33;69.07;100600.66;5097587;28;8829;-62
2023/03/03 00:59:15;;;;;;;;;12.60;12.00;;;;;2.33;69.08;100598.03;5097274;28;8845;-59
2023/03/03 01:01:42;;;;;;;;;16.60;14.60;;;;;2.32;69.94;100593.69;5097001;28;8834;-62
2023/03/03 01:04:10;;;;;;;;;9.60;9.00;;;;;2.33;69.73;100590.13;5097409;28;8825;-62
2023/03/03 01:06:38;;;;;;;;;13.80;12.00;;;;;2.35;69.90;100579.59;5097136;28;8952;-62
2023/03/03 01:09:06;;;;;;;;;13.80;12.20;;;;;2.33;69.32;100577.00;5097590;28;9541;-62
2023/03/03 01:11:33;;;;;;;;;7.00;5.20;;;;;2.35;69.67;100585.69;5097234;28;8822;-62
2023/03/03 01:14:01;;;;;;;;;16.80;12.60;;;;;2.36;68.97;100586.56;5097035;28;8846;-61
2023/03/03 01:16:29;;;;;;;;;9.60;9.60;;;;;2.36;69.62;100590.00;5097645;28;8911;-61
2023/03/03 01:18:57;;;;;;;;;13.80;13.00;;;;;2.37;69.51;100588.25;5097361;28;8837;-62
2023/03/03 01:21:24;;;;;;;;;9.60;9.60;;;;;2.40;69.48;100596.03;5096416;28;8918;-61
2023/03/03 01:23:52;;;;;;;;;10.40;7.40;;;;;2.39;69.57;100595.19;5095418;28;8838;-62
2023/03/03 01:26:20;;;;;;;;;14.60;13.40;;;;;2.37;69.79;100594.38;5095293;28;8927;-62
2023/03/03 01:28:48;;;;;;;;;10.80;10.80;;;;;2.34;69.38;100597.09;5095428;28;8837;-63
2023/03/03 01:31:15;;;;;;;;;10.00;7.00;;;;;2.34;69.85;100591.84;5095319;28;8864;-62
2023/03/03 01:33:43;;;;;;;;;7.80;6.40;;;;;2.35;70.13;100579.59;5095583;28;8900;-62
2023/03/03 01:36:11;;;;;;;;;8.20;6.40;;;;;2.34;70.00;100585.75;5096927;28;8826;-62
2023/03/03 01:38:39;;;;;;;;;12.60;12.20;;;;;2.34;69.50;100589.22;5096469;28;8830;-61
2023/03/03 01:41:06;;;;;;;;;16.60;12.20;;;;;2.36;69.92;100597.06;5096905;28;8833;-61
2023/03/03 01:43:34;;;;;;;;;16.20;12.00;;;;;2.33;69.72;100587.50;5096358;28;8822;-61
2023/03/03 01:46:02;;;;;;;;;9.20;8.60;;;;;2.34;69.43;100586.59;5096799;28;8834;-62
2023/03/03 01:48:29;;;;;;;;;11.20;9.00;;;;;2.32;69.40;100585.81;5096704;28;8860;-61
2023/03/03 01:50:57;;;;;;;;;13.00;12.00;;;;;2.30;69.73;100587.63;5096575;28;8834;-62
2023/03/03 01:53:25;;;;;;;;;6.60;4.00;;;;;2.26;69.64;100579.94;5096547;28;8829;-61
2023/03/03 01:55:52;;;;;;;;;15.20;14.80;;;;;2.25;69.87;100592.19;5096340;28;9215;-62
2023/03/03 01:58:20;;;;;;;;;16.40;12.40;;;;;2.25;69.53;100594.81;5096243;28;8850;-62
2023/03/03 02:00:49;;;;;;;;;16.40;15.80;;;;;2.23;70.18;100593.16;5096135;28;8829;-62
2023/03/03 02:03:16;;;;;;;;;10.80;8.40;;;;;2.22;70.00;100600.19;5096123;28;8818;-62
2023/03/03 02:05:44;;;;;;;;;5.00;4.40;;;;;2.21;70.83;100597.59;5096258;28;8822;-62
2023/03/03 02:08:12;;;;;;;;;7.40;7.00;;;;;2.22;70.61;100596.69;5095920;28;8844;-62
2023/03/03 02:10:40;;;;;;;;;16.60;9.60;;;;;2.24;70.62;100579.97;5095994;28;8838;-62
2023/03/03 02:13:07;;;;;;;;;17.60;16.00;;;;;2.25;70.06;100579.06;5096220;28;8821;-62
2023/03/03 02:15:35;;;;;;;;;15.00;14.60;;;;;2.26;70.36;100575.50;5095663;28;8822;-62
2023/03/03 02:18:04;;;;;;;;;16.20;14.60;;;;;2.26;69.97;100572.88;5095021;28;8838;-62
2023/03/03 02:20:31;;;;;;;;;13.80;10.40;;;;;2.26;70.06;100569.41;5095667;28;8826;-62
2023/03/03 02:22:59;;;;;;;;;11.40;10.40;;;;;2.25;70.52;100563.28;5095701;28;8826;-62
2023/03/03 02:25:27;;;;;;;;;10.80;10.00;;;;;2.21;70.27;100561.66;5095816;28;8852;-62
2023/03/03 02:27:55;;;;;;;;;14.00;12.40;;;;;2.21;70.24;100566.91;5095541;28;8853;-59
2023/03/03 02:30:24;;;;;;;;;9.00;9.00;;;;;2.24;70.06;100573.84;5095759;28;8865;-61
2023/03/03 02:32:51;;;;;;;;;17.40;17.20;;;;;2.23;70.46;100575.63;5095605;28;8830;-59
2023/03/03 02:35:19;;;;;;;;;15.40;13.40;;;;;2.23;70.02;100591.41;5095678;28;9503;-62
2023/03/03 02:37:47;;;;;;;;;13.80;10.80;;;;;2.22;70.87;100584.44;5095580;28;8814;-61
2023/03/03 02:40:14;;;;;;;;;14.40;10.60;;;;;2.20;70.45;100588.84;5095967;28;9514;-61
2023/03/03 02:42:42;;;;;;;;;12.60;12.00;;;;;2.18;71.03;100589.81;5095705;28;8849;-58
2023/03/03 02:45:10;;;;;;;;;8.60;6.40;;;;;2.17;70.94;100593.34;5095679;28;8861;-62
2023/03/03 02:47:38;;;;;;;;;14.00;13.60;;;;;2.17;70.60;100596.84;5095651;28;8864;-62
2023/03/03 02:50:06;;;;;;;;;11.60;9.20;;;;;2.19;70.31;100591.56;5097409;28;8904;-61
2023/03/03 02:52:33;;;;;;;;;11.40;10.00;;;;;2.19;70.74;100584.50;5100191;28;8828;-60
2023/03/03 02:55:01;;;;;;;;;12.80;12.80;;;;;2.20;70.22;100590.66;5100205;28;9550;-62
2023/03/03 02:57:29;;;;;;;;;8.20;6.60;;;;;2.20;70.90;100586.22;5099522;28;8830;-62
2023/03/03 02:59:57;;;;;;;;;10.80;10.60;;;;;2.21;71.05;100587.09;5099765;28;8825;-62
2023/03/03 03:02:26;;;;;;;;;13.60;13.20;;;;;2.24;70.50;100582.59;5099855;28;8848;-60
2023/03/03 03:04:53;;;;;;;;;11.20;8.40;;;;;2.24;70.53;100577.34;5100003;28;8822;-63
2023/03/03 03:07:21;;;;;;;;;13.00;10.40;;;;;2.24;70.70;100572.09;5099641;28;8865;-62
2023/03/03 03:09:49;;;;;;;;;8.80;8.20;;;;;2.25;70.29;100575.56;5099740;28;8830;-60
2023/03/03 03:12:18;;;;;;;;;15.40;12.60;;;;;2.24;70.37;100579.97;5099674;28;8852;-62
2023/03/03 03:14:45;;;;;;;;;12.80;10.80;;;;;2.24;70.51;100587.84;5099706;28;8814;-62
2023/03/03 03:17:13;;;;;;;;;12.60;11.00;;;;;2.23;70.90;100588.75;5098903;28;8834;-61
2023/03/03 03:19:41;;;;;;;;;13.60;11.40;;;;;2.22;70.20;100592.31;5099064;28;8842;-62
2023/03/03 03:22:08;;;;;;;;;11.40;11.20;;;;;2.22;71.00;100589.69;5097595;28;8821;-62
2023/03/03 03:24:37;;;;;;;;;9.20;9.20;;;;;2.23;70.52;100588.75;5098747;28;8826;-61
2023/03/03 03:27:05;;;;;;;;;9.80;9.60;;;;;2.24;70.88;100587.84;5098690;28;8825;-62
2023/03/03 03:29:32;;;;;;;;;6.20;5.60;;;;;2.28;71.16;100588.59;5098810;28;8923;-62
2023/03/03 03:32:00;;;;;;;;;18.00;13.40;;;;;2.25;71.33;100600.06;5098502;28;8847;-62
2023/03/03 03:34:27;;;;;;;;;13.40;12.40;;;;;2.26;70.47;100593.06;5098400;28;8832;-62
2023/03/03 03:36:55;;;;;;;;;10.40;9.80;;;;;2.24;71.13;100595.72;5098889;28;8822;-59
2023/03/03 03:39:23;;;;;;;;;14.00;11.40;;;;;2.23;70.72;100590.53;5099018;28;8822;-61
2023/03/03 03:41:50;;;;;;;;;12.40;11.00;;;;;2.21;70.78;100590.56;5098861;28;8834;-62
2023/03/03 03:44:18;;;;;;;;;9.40;7.40;;;;;2.20;71.14;100602.00;5098525;28;8822;-62
2023/03/03 03:46:46;;;;;;;;;14.60;12.20;;;;;2.19;70.83;100599.44;5098885;28;8822;-61
2023/03/03 03:49:14;;;;;;;;;7.20;6.80;;;;;2.19;70.72;100605.53;5099141;28;8821;-62
2023/03/03 03:51:41;;;;;;;;;13.00;12.00;;;;;2.18;71.08;100618.72;5098778;28;8850;-60
2023/03/03 03:54:09;;;;;;;;;15.80;11.60;;;;;2.19;70.74;100609.94;5098308;28;8841;-61
2023/03/03 03:56:37;;;;;;;;;14.80;12.60;;;;;2.19;71.01;100616.03;5096785;28;8846;-62
2023/03/03 03:59:05;;;;;;;;;4.00;4.00;;;;;2.16;71.09;100610.91;5096443;28;8900;-62
2023/03/03 04:01:32;;;;;;;;;11.60;10.00;;;;;2.13;70.89;100613.63;5097519;28;8895;-62
2023/03/03 04:04:00;;;;;;;;;10.20;10.20;;;;;2.11;71.47;100619.88;5098482;28;8918;-59
2023/03/03 04:06:28;;;;;;;;;4.00;3.40;;;;;2.06;71.57;100614.75;5097916;28;8822;-62
2023/03/03 04:08:56;;;;;;;;;6.00;4.80;;;;;2.04;71.45;100615.72;5096732;28;8814;-62
2023/03/03 04:11:24;;;;;;;;;10.80;10.40;;;;;2.01;71.71;100614.06;5096898;28;8841;-60
2023/03/03 04:13:51;;;;;;;;;9.20;7.20;;;;;2.01;71.54;100605.31;5097617;28;8858;-61
2023/03/03 04:16:19;;;;;;;;;13.00;11.00;;;;;2.00;71.85;100620.22;5097248;28;8842;-61
2023/03/03 04:18:46;;;;;;;;;12.40;8.80;;;;;2.00;71.81;100614.09;5096969;28;8833;-62
2023/03/03 04:21:14;;;;;;;;;8.60;8.60;;;;;1.99;71.87;100623.72;5097399;28;8845;-62
2023/03/03 04:23:42;;;;;;;;;10.40;10.40;;;;;1.96;71.63;100613.34;5097884;28;8854;-62
2023/03/03 04:26:10;;;;;;;;;6.80;6.80;;;;;1.97;72.39;100619.47;5098349;28;8830;-61
2023/03/03 04:28:37;;;;;;;;;12.40;12.40;;;;;1.96;72.50;100626.47;5098151;28;8845;-62
2023/03/03 04:31:05;;;;;;;;;2.00;0.40;;;;;1.95;72.27;100616.88;5097769;28;8825;-62
2023/03/03 04:33:33;;;;;;;;;9.40;7.80;;;;;1.94;72.19;100620.44;5097167;28;8837;-61
2023/03/03 04:36:01;;;;;;;;;6.00;6.00;;;;;1.94;71.95;100622.19;5096942;28;8834;-61
2023/03/03 04:38:28;;;;;;;;;16.00;15.00;;;;;1.95;72.43;100624.78;5097162;28;9511;-60
2023/03/03 04:40:56;;;;;;;;;6.40;5.20;;;;;1.99;72.44;100620.28;5097168;28;8830;-62
2023/03/03 04:43:24;;;;;;;;;10.40;9.20;;;;;2.01;72.26;100621.06;5097721;28;8864;-61
2023/03/03 04:45:52;;;;;;;;;10.80;8.00;;;;;1.99;72.13;100629.00;5097158;28;8859;-62
2023/03/03 04:48:19;;;;;;;;;12.80;11.20;;;;;1.99;71.68;100629.00;5097401;28;8818;-62
2023/03/03 04:50:47;;;;;;;;;7.20;6.40;;;;;1.99;72.05;100628.16;5097267;28;8853;-61
2023/03/03 04:53:15;;;;;;;;;12.00;9.80;;;;;1.99;72.39;100622.91;5098042;28;8840;-62
2023/03/03 04:55:43;;;;;;;;;12.00;10.00;;;;;1.98;71.87;100622.03;5097141;28;8840;-62
2023/03/03 04:58:10;;;;;;;;;15.80;12.60;;;;;1.97;72.21;100620.31;5097240;28;8849;-62
2023/03/03 05:00:38;;;;;;;;;13.20;9.40;;;;;2.00;72.25;100619.34;5096607;28;8842;-62
2023/03/03 05:03:06;;;;;;;;;14.60;12.40;;;;;2.01;72.31;100615.81;5097020;28;8864;-62
2023/03/03 05:05:33;;;;;;;;;12.60;10.80;;;;;2.03;72.30;100625.38;5096552;28;8830;-62
2023/03/03 05:08:01;;;;;;;;;12.60;10.20;;;;;2.06;71.97;100620.00;5095333;28;8852;-63
2023/03/03 05:10:29;;;;;;;;;9.40;7.40;;;;;2.09;71.90;100614.66;5095177;28;8868;-62
2023/03/03 05:12:57;;;;;;;;;14.20;12.60;;;;;2.07;72.15;100608.59;5095424;28;8834;-62
2023/03/03 05:15:25;;;;;;;;;12.80;11.20;;;;;2.06;72.52;100620.00;5096673;28;8854;-63
2023/03/03 05:17:55;;;;;;;;;8.40;8.40;;;;;2.07;72.01;100611.22;5096907;28;8814;-62
2023/03/03 05:20:23;;;;;;;;;9.60;9.60;;;;;2.08;72.24;100610.31;5096711;28;8842;-62
2023/03/03 05:22:50;;;;;;;;;10.00;8.40;;;;;2.07;72.20;100608.59;5096581;28;8830;-63
2023/03/03 05:25:18;;;;;;;;;8.20;7.80;;;;;2.08;71.61;100615.56;5095666;28;8853;-62
2023/03/03 05:27:46;;;;;;;;;7.00;6.40;;;;;2.06;72.23;100604.22;5096599;28;8834;-62
2023/03/03 05:30:14;;;;;;;;;15.00;13.80;;;;;2.06;72.37;100609.50;5096329;28;8848;-62
2023/03/03 05:32:41;;;;;;;;;12.00;12.00;;;;;2.06;71.84;100608.66;5096555;28;8911;-62
2023/03/03 05:35:09;;;;;;;;;3.80;3.20;;;;;2.05;72.27;100614.81;5097020;28;9305;-61
2023/03/03 05:37:38;;;;;;;;;10.80;9.80;;;;;2.02;71.80;100613.16;5096011;28;8867;-62
2023/03/03 05:40:06;;;;;;;;;11.80;11.20;;;;;2.04;72.26;100619.19;5096606;28;8829;-62
2023/03/03 05:42:34;;;;;;;;;7.80;6.40;;;;;2.06;72.47;100619.16;5095850;28;8895;-62
2023/03/03 05:45:02;;;;;;;;;11.60;9.60;;;;;2.07;72.27;100626.13;5095933;28;8834;-62
2023/03/03 05:47:30;;;;;;;;;10.20;9.60;;;;;2.08;72.15;100618.19;5095530;28;8822;-62
2023/03/03 05:49:57;;;;;;;;;11.20;7.40;;;;;2.10;72.06;100616.38;5095777;28;8838;-62
2023/03/03 05:52:25;;;;;;;;;15.60;12.40;;;;;2.10;72.36;100616.38;5095238;28;8837;-62
2023/03/03 05:54:52;;;;;;;;;9.00;6.60;;;;;2.10;72.48;100620.75;5094911;28;8864;-61
2023/03/03 05:57:20;;;;;;;;;7.40;6.80;;;;;2.10;72.51;100621.63;5094881;28;8919;-62
2023/03/03 05:59:48;;;;;;;;;10.40;9.40;;;;;2.08;72.11;100628.69;5095310;28;8846;-63
2023/03/03 06:02:16;;;;;;;;;7.00;5.60;;;;;2.08;72.56;100623.44;5095286;28;8817;-62
2023/03/03 06:04:43;;;;;;;;;12.00;10.80;;;;;2.08;72.14;100625.19;5093704;28;8853;-63
2023/03/03 06:07:11;;;;;;;;;11.60;9.80;;;;;2.11;72.42;100625.94;5093706;28;8834;-62
2023/03/03 06:09:39;;;;;;;;;10.00;9.80;;;;;2.12;72.32;100625.03;5094173;28;8964;-62
2023/03/03 06:12:07;;;;;;;;;12.00;9.60;;;;;2.14;71.99;100643.38;5094763;28;8826;-62
2023/03/03 06:14:34;;;;;;;;;9.60;7.00;;;;;2.15;72.45;100645.97;5094551;28;8830;-62
2023/03/03 06:17:02;;;;;;;;;10.40;8.20;;;;;2.14;72.08;100643.38;5094304;28;8964;-61
2023/03/03 06:19:30;;;;;;;;;12.60;9.80;;;;;2.12;72.50;100651.31;5094865;28;8861;-62
2023/03/03 06:21:58;;;;;;;;;15.20;10.00;;;;;2.11;72.63;100648.75;5093873;28;8829;-63
2023/03/03 06:24:29;;;;;;;;;9.80;8.00;;;;;2.09;72.79;100650.56;5094866;28;8956;-62
2023/03/03 06:26:56;;;;;;;;;9.00;6.60;;;;;2.08;72.48;100649.72;5094478;28;8822;-63
2023/03/03 06:29:24;;;;;;;;;9.20;9.00;;;;;2.09;73.04;100651.41;5094454;28;9536;-62
2023/03/03 06:31:52;;;;;;;;;10.60;9.00;;;;;2.11;72.21;100646.97;5094098;28;8826;-62
2023/03/03 06:34:20;;;;;;;;;1.80;0.80;;;;;2.13;72.22;100653.00;5093812;28;8956;-63
2023/03/03 06:36:47;;;;;;;;;9.40;9.40;;;;;2.16;72.04;100658.19;5093104;28;8818;-63
2023/03/03 06:39:15;;;;;;;;;13.20;11.80;;;;;2.19;72.02;100662.47;5093113;28;8867;-62
2023/03/03 06:41:43;;;;;;;;;6.80;6.40;;;;;2.21;71.81;100677.25;5092824;28;8846;-63
2023/03/03 06:44:11;;;;;;;;;12.20;10.00;;;;;2.20;71.86;100659.78;5092132;28;8846;-62
2023/03/03 06:46:39;;;;;;;;;7.60;6.40;;;;;2.23;72.46;100674.59;5093124;28;8834;-59
2023/03/03 06:49:07;;;;;;;;;8.20;8.20;;;;;2.23;72.44;100667.56;5092198;28;8825;-62
2023/03/03 06:51:35;;;;;;;;;10.20;9.60;;;;;2.24;72.49;100676.28;5091808;28;8845;-59
2023/03/03 06:54:03;;;;;;;;;9.20;9.20;;;;;2.24;72.17;100677.16;5092204;28;8867;-62
2023/03/03 06:56:30;;;;;;;;;12.00;9.60;;;;;2.25;72.00;100678.88;5091300;28;8836;-62
2023/03/03 06:58:58;;;;;;;;;12.00;7.40;;;;;2.28;71.76;100670.03;5088762;28;8857;-61
2023/03/03 07:01:26;;;;;;;;;10.80;6.40;;;;;2.31;72.00;100673.41;5087584;28;9219;-62
2023/03/03 07:03:54;;;;;;;;;14.00;13.60;;;;;2.34;72.18;100672.47;5086980;28;9237;-61
2023/03/03 07:06:23;;;;;;;;;8.00;7.40;;;;;2.35;72.17;100668.91;5087104;28;8954;-62
2023/03/03 07:08:51;;;;;;;;;9.60;9.00;;;;;2.35;72.21;100669.75;5088955;28;9200;-60
2023/03/03 07:11:19;;;;;;;;;9.60;8.60;;;;;2.35;71.80;100672.38;5089772;28;8814;-61
2023/03/03 07:13:47;;;;;;;;;4.20;4.00;;;;;2.38;72.24;100674.94;5089344;28;8850;-62
2023/03/03 07:16:15;;;;;;;;;6.00;6.00;;;;;2.37;72.14;100678.47;5091222;28;8829;-63
2023/03/03 07:18:44;;;;;;;;;8.80;8.60;;;;;2.38;72.38;100674.94;5091179;28;8818;-62
2023/03/03 07:21:12;;;;;;;;;4.80;4.00;;;;;2.39;72.05;100678.38;5092193;28;8848;-62
2023/03/03 07:23:41;;;;;;;;;14.20;12.20;;;;;2.41;72.21;100673.97;5093071;28;9530;-61
2023/03/03 07:26:09;;;;;;;;;10.80;9.40;;;;;2.41;71.71;100689.72;5092657;28;8849;-62
2023/03/03 07:28:36;;;;;;;;;12.60;11.60;;;;;2.40;71.93;100693.25;5091834;28;8849;-63
2023/03/03 07:31:04;;;;;;;;;10.20;9.00;;;;;2.39;71.43;100696.78;5090169;28;8879;-60
2023/03/03 07:33:32;;;;;;;;;10.80;10.40;;;;;2.40;71.94;100703.75;5091536;28;8848;-62
2023/03/03 07:36:00;;;;;;;;;6.20;6.20;;;;;2.40;71.73;100707.25;5091887;28;8848;-63
2023/03/03 07:38:28;;;;;;;;;9.40;8.60;;;;;2.41;71.98;100706.34;5096301;28;8975;-62
2023/03/03 07:40:56;;;;;;;;;9.80;9.80;;;;;2.42;72.04;100712.47;5095721;28;8897;-63
2023/03/03 07:43:26;;;;;;;;;7.80;7.80;;;;;2.43;72.22;100715.00;5094592;28;8832;-62
2023/03/03 07:45:54;;;;;;;;;12.00;10.00;;;;;2.46;71.98;100708.81;5094119;28;8971;-63
2023/03/03 07:48:22;;;;;;;;;9.40;9.40;;;;;2.47;72.12;100714.00;5092982;28;8837;-61
2023/03/03 07:50:50;;;;;;;;;5.80;5.60;;;;;2.50;71.72;100710.44;5093767;28;8844;-62
2023/03/03 07:53:18;;;;;;;;;13.40;11.80;;;;;2.54;71.95;100723.41;5094027;28;9499;-62
2023/03/03 07:55:46;;;;;;;;;9.60;9.40;;;;;2.59;71.74;100718.81;5093492;28;9183;-62
2023/03/03 07:58:15;;;;;;;;;10.60;9.00;;;;;2.64;71.43;100723.94;5095108;28;8876;-62
2023/03/03 08:00:43;;;;;;;;;9.40;8.60;;;;;2.66;71.24;100722.97;5095126;28;9189;-61
2023/03/03 08:03:11;;;;;;;;;7.20;4.80;;;;;2.67;71.12;100729.09;5094487;28;8817;-61
2023/03/03 08:05:38;;;;;;;;;10.40;9.60;;;;;2.68;71.09;100733.44;5094652;28;8830;-60
2023/03/03 08:08:07;;;;;;;;;10.20;9.60;;;;;2.70;71.62;100731.59;5094073;28;8826;-61
2023/03/03 08:10:35;;;;;;;;;9.40;8.20;;;;;2.70;71.69;100728.97;5093756;28;9732;-60
2023/03/03 08:13:02;;;;;;;;;6.40;4.80;;;;;2.71;71.09;100734.19;5095010;28;8834;-61
2023/03/03 08:15:31;;;;;;;;;6.00;6.00;;;;;2.71;71.78;100728.06;5094596;28;8842;-62
2023/03/03 08:17:59;;;;;;;;;11.80;8.20;;;;;2.74;71.49;100738.47;5091661;28;8842;-61
2023/03/03 08:20:27;;;;;;;;;18.60;13.40;;;;;2.75;71.78;100737.56;5091146;28;8834;-60
2023/03/03 08:22:55;;;;;;;;;15.00;12.00;;;;;2.76;71.92;100732.25;5091030;28;8992;-61
2023/03/03 08:25:22;;;;;;;;;13.60;13.60;;;;;2.76;71.26;100734.88;5091581;28;8834;-61
2023/03/03 08:27:50;;;;;;;;;11.40;10.00;;;;;2.75;71.08;100738.44;5093153;28;8846;-62
2023/03/03 08:30:18;;;;;;;;;9.60;6.40;;;;;2.77;71.51;100741.84;5094576;28;8830;-61
2023/03/03 08:32:46;;;;;;;;;9.60;9.60;;;;;2.78;71.21;100735.69;5095160;28;8838;-62
2023/03/03 08:35:14;;;;;;;;;12.00;8.20;;;;;2.84;71.87;100742.50;5092843;28;8837;-61
2023/03/03 08:37:42;;;;;;;;;13.00;11.20;;;;;2.86;71.36;100741.53;5092625;28;8948;-63
2023/03/03 08:40:10;;;;;;;;;3.00;3.00;;;;;2.88;71.21;100750.22;5094189;28;8868;-62
2023/03/03 08:42:38;;;;;;;;;9.40;9.20;;;;;2.87;70.98;100748.50;5094433;28;8834;-59
2023/03/03 08:45:06;;;;;;;;;11.40;9.80;;;;;2.88;71.32;100752.84;5094388;28;8876;-61
2023/03/03 08:47:34;;;;;;;;;9.60;9.20;;;;;2.90;71.57;100758.94;5092268;28;8842;-62
2023/03/03 08:50:02;;;;;;;;;13.00;10.00;;;;;2.88;71.46;100763.34;5092641;28;8944;-61
2023/03/03 08:52:30;;;;;;;;;13.00;12.20;;;;;2.89;71.18;100767.69;5093826;28;8842;-62
2023/03/03 08:54:59;;;;;;;;;9.80;8.20;;;;;2.88;71.25;100762.53;5094167;28;8846;-62
2023/03/03 08:57:27;;;;;;;;;5.20;5.20;;;;;2.89;71.68;100758.97;5093428;28;8861;-62
2023/03/03 08:59:55;;;;;;;;;9.60;9.40;;;;;2.91;71.16;100762.41;5092335;28;9519;-61
2023/03/03 09:02:23;;;;;;;;;9.80;9.00;;;;;2.92;71.83;100767.63;5092779;28;9587;-62
2023/03/03 09:04:51;;;;;;;;;13.80;12.00;;;;;2.94;71.16;100773.66;5094264;28;8837;-61
2023/03/03 09:07:19;;;;;;;;;9.40;9.00;;;;;2.95;71.52;100767.50;5093019;28;8925;-60
2023/03/03 09:09:47;;;;;;;;;6.80;6.60;;;;;2.98;71.70;100766.53;5093107;28;8849;-61
2023/03/03 09:12:15;;;;;;;;;9.00;7.80;;;;;3.02;71.00;100774.25;5092809;28;8833;-63
2023/03/03 09:14:43;;;;;;;;;14.40;11.80;;;;;3.07;71.25;100777.59;5093782;28;8833;-60
2023/03/03 09:17:12;;;;;;;;;13.40;12.40;;;;;3.11;71.27;100773.06;5092598;28;9522;-62
2023/03/03 09:19:40;;;;;;;;;10.00;10.00;;;;;3.14;71.02;100776.44;5092209;28;8864;-62
2023/03/03 09:22:08;;;;;;;;;22.20;14.60;;;;;3.20;70.58;100768.34;5091368;28;8922;-61
2023/03/03 09:24:36;;;;;;;;;9.80;9.80;;;;;3.26;70.71;100767.25;5089955;28;8845;-62
2023/03/03 09:27:04;;;;;;;;;16.00;10.40;;;;;3.27;70.47;100761.91;5090636;28;8845;-61
2023/03/03 09:29:32;;;;;;;;;11.20;10.80;;;;;3.31;70.76;100766.16;5089674;28;8914;-62
2023/03/03 09:32:00;;;;;;;;;13.60;10.80;;;;;3.30;70.66;100767.09;5091389;28;8959;-61
2023/03/03 09:34:29;;;;;;;;;6.40;5.20;;;;;3.33;70.96;100764.31;5089790;28;8841;-61
2023/03/03 09:36:58;;;;;;;;;8.60;7.40;;;;;3.38;70.37;100764.16;5091569;28;8971;-62
2023/03/03 09:39:27;;;;;;;;;10.60;10.40;;;;;3.43;70.37;100765.72;5090542;28;8937;-62
2023/03/03 09:41:55;;;;;;;;;11.20;10.40;;;;;3.46;70.43;100765.59;5091114;28;8853;-61
2023/03/03 09:44:22;;;;;;;;;7.40;4.80;;;;;3.48;70.30;100766.38;5089957;28;8883;-62
2023/03/03 09:46:50;;;;;;;;;9.40;7.00;;;;;3.52;70.17;100775.91;5090138;28;8883;-61
2023/03/03 09:49:18;;;;;;;;;7.00;6.00;;;;;3.59;70.36;100777.38;5092260;28;8845;-62
2023/03/03 09:51:46;;;;;;;;;10.60;9.00;;;;;3.63;69.51;100781.59;5091344;28;8833;-63
2023/03/03 09:54:14;;;;;;;;;6.40;4.40;;;;;3.66;70.32;100776.22;5091239;28;9503;-63
2023/03/03 09:56:43;;;;;;;;;12.00;7.80;;;;;3.69;69.61;100788.44;5089728;28;8845;-61
2023/03/03 09:59:11;;;;;;;;;9.00;7.00;;;;;3.69;70.20;100791.91;5089371;28;8986;-62
2023/03/03 10:01:39;;;;;;;;;6.40;6.20;;;;;3.68;69.71;100790.19;5090527;28;8875;-63
2023/03/03 10:04:07;;;;;;;;;15.20;13.20;;;;;3.70;69.74;100792.78;5090066;28;8862;-62
2023/03/03 10:06:35;;;;;;;;;9.40;7.00;;;;;3.71;70.06;100797.13;5089043;28;8842;-62
2023/03/03 10:09:03;;;;;;;;;12.20;11.20;;;;;3.72;69.87;100794.41;5091841;28;9516;-63
2023/03/03 10:11:31;;;;;;;;;14.00;12.40;;;;;3.74;69.67;100793.44;5090859;28;8858;-63
2023/03/03 10:13:59;;;;;;;;;25.20;21.40;;;;;3.77;69.74;100797.72;5091629;28;8871;-62
2023/03/03 10:16:27;;;;;;;;;10.80;9.00;;;;;3.78;69.54;100795.03;5089336;28;8822;-63
2023/03/03 10:18:55;;;;;;;;;14.60;11.00;;;;;3.85;69.88;100795.66;5089298;28;8829;-62
2023/03/03 10:21:23;;;;;;;;;11.20;9.60;;;;;3.89;69.54;100805.19;5091343;28;8837;-63
2023/03/03 10:23:52;;;;;;;;;16.00;11.20;;;;;3.94;69.21;100803.19;5092540;28;8845;-62
2023/03/03 10:26:25;;;;;;;;;8.40;6.60;;;;;3.96;69.50;100799.59;5091902;28;8834;-63
2023/03/03 10:29:10;;;;;;;;;9.20;9.20;;;;;3.97;69.72;100806.56;5088189;28;8830;-63
2023/03/03 10:31:38;;;;;;;;;7.60;6.80;;;;;4.01;69.53;100809.94;5087730;28;9492;-63
2023/03/03 10:34:07;;;;;;;;;9.60;9.00;;;;;4.01;69.11;100815.22;5088955;28;8830;-63
2023/03/03 10:36:35;;;;;;;;;11.20;9.80;;;;;4.04;69.46;100812.47;5091247;28;8915;-62
2023/03/03 10:39:02;;;;;;;;;6.40;6.40;;;;;4.06;69.65;100808.00;5090929;28;8841;-63
2023/03/03 10:41:30;;;;;;;;;9.60;8.60;;;;;4.09;69.57;100811.38;5091572;28;8846;-63
2023/03/03 10:43:59;;;;;;;;;11.40;9.60;;;;;4.12;69.21;100818.31;5089653;28;8850;-63
2023/03/03 10:46:27;;;;;;;;;11.80;9.80;;;;;4.14;69.16;100812.06;5090652;28;8830;-58
2023/03/03 10:48:55;;;;;;;;;12.40;9.20;;;;;4.16;68.90;100807.56;5093809;28;8826;-61
2023/03/03 10:51:24;;;;;;;;;11.20;9.60;;;;;4.18;69.43;100811.00;5092086;28;8953;-60
2023/03/03 10:53:52;;;;;;;;;11.80;11.80;;;;;4.21;69.44;100815.28;5091713;28;8970;-60
2023/03/03 10:56:20;;;;;;;;;9.60;7.40;;;;;4.23;69.11;100818.72;5090828;28;8838;-58
2023/03/03 10:58:48;;;;;;;;;12.60;11.20;;;;;4.24;69.43;100816.03;5091172;28;8861;-58
2023/03/03 11:01:16;;;;;;;;;11.00;8.20;;;;;4.22;68.73;100812.63;5091572;28;8837;-58
2023/03/03 11:03:44;;;;;;;;;13.60;9.60;;;;;4.20;68.87;100809.16;5091703;28;8841;-61
2023/03/03 11:06:12;;;;;;;;;12.40;11.20;;;;;4.22;69.01;100811.75;5090947;28;8841;-61
2023/03/03 11:08:41;;;;;;;;;4.00;4.00;;;;;4.24;68.79;100804.63;5090353;28;8928;-59
2023/03/03 11:11:09;;;;;;;;;10.80;10.60;;;;;4.26;68.82;100810.72;5091044;28;8845;-60
2023/03/03 11:13:37;;;;;;;;;9.00;9.00;;;;;4.30;69.05;100804.38;5094912;28;8951;-60
2023/03/03 11:16:05;;;;;;;;;13.20;11.80;;;;;4.33;69.27;100801.63;5095161;28;8857;-59
2023/03/03 11:18:33;;;;;;;;;14.40;10.00;;;;;4.39;68.97;100798.72;5093977;28;8833;-60
2023/03/03 11:21:01;;;;;;;;;6.80;6.40;;;;;4.46;68.62;100797.56;5094070;28;8837;-59
2023/03/03 11:23:29;;;;;;;;;9.40;8.20;;;;;4.50;68.40;100799.16;5095296;28;9553;-60
2023/03/03 11:25:57;;;;;;;;;6.80;6.80;;;;;4.53;67.94;100806.94;5095655;28;8953;-60
2023/03/03 11:28:25;;;;;;;;;6.80;5.80;;;;;4.55;68.07;100795.41;5093681;28;8852;-59
2023/03/03 11:30:53;;;;;;;;;11.20;9.80;;;;;4.57;68.71;100805.91;5094952;28;8849;-58
2023/03/03 11:33:22;;;;;;;;;6.20;5.60;;;;;4.57;67.94;100803.25;5095225;28;8833;-60
2023/03/03 11:35:50;;;;;;;;;7.80;5.60;;;;;4.56;68.68;100806.81;5095119;28;8848;-61